Airfield :
LOGIN :

Register | Disclaimer

   EN    FR    IT 

 










Legend :    VFR   Marginal VFR   IFR   Intensive IFR   Very Intensive IFR
Visi :
Ceiling :
>= 8 km
>= 3000ft
5 to 8 km
1000 to 3000 ft
1500m to 5 km
500 to 1000 ft
800 to 1500m
200 to 500 ft
< 800m
< 200 ft
Symbols :   Thunderstorms  Fog  Heavy snow  Heavy precipitations  Wind > 20 kt
SIGMETs :     Misc.  Thunderstorms  Icing  Turbulence  Mountain Waves  Volcanic Ashes







- Airport Elevation : 1046 ft
- IATA code : NUE


EDDN - Nuremberg

CURRENT METAR :
  • 262120Z 00000KT 9999 MIFG NSC 10/10 Q1023 NOSIG

EXPIRED METARs :
  • 262050Z 27002KT CAVOK 11/10 Q1023 NOSIG
  • 262020Z 06002KT CAVOK 11/10 Q1023 NOSIG
  • 261950Z 07003KT 050V110 CAVOK 12/10 Q1023 NOSIG
  • 261920Z 08003KT CAVOK 13/10 Q1023 NOSIG
  • 261850Z 08004KT CAVOK 14/11 Q1023 NOSIG

TAF TAF EDDN
Valid from the 26 at 18:00 until the 27 at 18:00 UTC


261700Z 2618/2718 09004KT CAVOK
TEMPO 2700/2708 1200 BCFG BKN002
PROB30
TEMPO 2710/2716 -TSRA SCT020CB
No reported NOTAMs for that airfield.



MET'MAP, your aeronautical weather chart ! - Copyright ORBIFLY December 2007 - Disclaimer

ORBIFLY MET'MAP TEAM :

Programming & Development : Alexandra Zaïnal
Concept & Development : Baudouin d'Aumeries
Co-Development & Prog : Marc-Olivier Méhu
Technical & hardware support : Manuel Goepfert

Contact : metmap@orbifly.com




SOURCES & CREDITS :

   NOAA